sensor_id;sensor_type;location;lat;lon;timestamp;pressure;altitude;pressure_sealevel;temperature;humidity
10348;BME280;5220;43.192;23.284;2022-08-01T00:01:29;96858.44;;;20.07;62.09
10348;BME280;5220;43.192;23.284;2022-08-01T00:03:56;96850.81;;;20.12;61.52
10348;BME280;5220;43.192;23.284;2022-08-01T00:06:23;96848.66;;;20.15;61.91
10348;BME280;5220;43.192;23.284;2022-08-01T00:08:50;96863.16;;;20.19;62.11
10348;BME280;5220;43.192;23.284;2022-08-01T00:11:17;96844.97;;;20.24;61.72
10348;BME280;5220;43.192;23.284;2022-08-01T00:13:44;96848.75;;;20.30;61.00
10348;BME280;5220;43.192;23.284;2022-08-01T00:16:10;96853.06;;;20.31;60.18
10348;BME280;5220;43.192;23.284;2022-08-01T00:18:39;96853.78;;;20.17;60.55
10348;BME280;5220;43.192;23.284;2022-08-01T00:21:08;96859.19;;;20.23;60.55
10348;BME280;5220;43.192;23.284;2022-08-01T00:23:35;96858.88;;;20.26;60.34
10348;BME280;5220;43.192;23.284;2022-08-01T00:26:02;96847.13;;;20.29;59.23
10348;BME280;5220;43.192;23.284;2022-08-01T00:28:29;96846.16;;;20.22;58.94
10348;BME280;5220;43.192;23.284;2022-08-01T00:30:55;96845.03;;;20.16;58.29
10348;BME280;5220;43.192;23.284;2022-08-01T00:33:22;96842.03;;;20.19;59.08
10348;BME280;5220;43.192;23.284;2022-08-01T00:35:50;96837.09;;;20.16;58.75
10348;BME280;5220;43.192;23.284;2022-08-01T00:38:17;96837.09;;;20.16;58.58
10348;BME280;5220;43.192;23.284;2022-08-01T00:40:44;96836.75;;;20.19;59.45
10348;BME280;5220;43.192;23.284;2022-08-01T00:43:10;96836.38;;;20.30;59.44
10348;BME280;5220;43.192;23.284;2022-08-01T00:45:37;96834.69;;;20.37;59.61
10348;BME280;5220;43.192;23.284;2022-08-01T00:48:04;96830.03;;;20.39;59.28
10348;BME280;5220;43.192;23.284;2022-08-01T00:50:31;96828.69;;;20.44;59.32
10348;BME280;5220;43.192;23.284;2022-08-01T00:52:59;96820.72;;;20.52;58.30
10348;BME280;5220;43.192;23.284;2022-08-01T00:55:27;96814.63;;;20.51;58.98
10348;BME280;5220;43.192;23.284;2022-08-01T00:57:54;96807.31;;;20.53;58.34
10348;BME280;5220;43.192;23.284;2022-08-01T01:00:22;96798.63;;;20.45;57.50
10348;BME280;5220;43.192;23.284;2022-08-01T01:02:48;96799.38;;;20.30;56.10
10348;BME280;5220;43.192;23.284;2022-08-01T01:05:15;96801.78;;;20.17;56.52
10348;BME280;5220;43.192;23.284;2022-08-01T01:07:48;96802.00;;;20.08;56.08
10348;BME280;5220;43.192;23.284;2022-08-01T01:10:22;96795.63;;;19.94;56.31
10348;BME280;5220;43.192;23.284;2022-08-01T01:12:59;96801.19;;;19.76;56.68
10348;BME280;5220;43.192;23.284;2022-08-01T01:15:32;96793.00;;;19.63;56.60
10348;BME280;5220;43.192;23.284;2022-08-01T01:18:03;96797.63;;;19.53;57.09
10348;BME280;5220;43.192;23.284;2022-08-01T01:20:37;96804.91;;;19.51;57.72
10348;BME280;5220;43.192;23.284;2022-08-01T01:23:24;96799.16;;;19.48;57.26
10348;BME280;5220;43.192;23.284;2022-08-01T01:26:09;96799.16;;;19.48;56.82
10348;BME280;5220;43.192;23.284;2022-08-01T01:29:01;96802.44;;;19.50;58.04
10348;BME280;5220;43.192;23.284;2022-08-01T01:31:33;96794.19;;;19.53;57.00
10348;BME280;5220;43.192;23.284;2022-08-01T01:34:03;96790.91;;;19.51;58.20
10348;BME280;5220;43.192;23.284;2022-08-01T01:36:31;96793.34;;;19.52;56.81
10348;BME280;5220;43.192;23.284;2022-08-01T01:39:00;96799.97;;;19.48;57.33
10348;BME280;5220;43.192;23.284;2022-08-01T01:41:30;96788.31;;;19.43;57.43
10348;BME280;5220;43.192;23.284;2022-08-01T01:43:58;96777.72;;;19.34;57.95
10348;BME280;5220;43.192;23.284;2022-08-01T01:46:28;96771.97;;;19.31;58.26
10348;BME280;5220;43.192;23.284;2022-08-01T01:48:58;96774.47;;;19.24;58.09
10348;BME280;5220;43.192;23.284;2022-08-01T01:51:27;96768.72;;;19.21;58.10
10348;BME280;5220;43.192;23.284;2022-08-01T01:53:55;96771.56;;;19.11;58.22
10348;BME280;5220;43.192;23.284;2022-08-01T01:56:23;96775.34;;;19.01;58.80
10348;BME280;5220;43.192;23.284;2022-08-01T01:58:53;96770.41;;;18.98;58.76
10348;BME280;5220;43.192;23.284;2022-08-01T02:01:21;96766.47;;;18.94;59.32
10348;BME280;5220;43.192;23.284;2022-08-01T02:03:51;96757.09;;;18.91;60.08
10348;BME280;5220;43.192;23.284;2022-08-01T02:06:20;96764.66;;;19.02;60.11
10348;BME280;5220;43.192;23.284;2022-08-01T02:08:48;96753.78;;;19.05;60.53
10348;BME280;5220;43.192;23.284;2022-08-01T02:11:15;96757.84;;;19.16;59.75
10348;BME280;5220;43.192;23.284;2022-08-01T02:13:48;96758.19;;;19.21;59.05
10348;BME280;5220;43.192;23.284;2022-08-01T02:16:18;96755.53;;;19.21;58.66
10348;BME280;5220;43.192;23.284;2022-08-01T02:18:47;96750.91;;;19.15;59.34
10348;BME280;5220;43.192;23.284;2022-08-01T02:21:20;96750.25;;;19.21;59.87
10348;BME280;5220;43.192;23.284;2022-08-01T02:23:51;96748.75;;;19.26;59.41
10348;BME280;5220;43.192;23.284;2022-08-01T02:26:19;96756.97;;;19.31;59.07
10348;BME280;5220;43.192;23.284;2022-08-01T02:28:51;96745.72;;;19.38;59.38
10348;BME280;5220;43.192;23.284;2022-08-01T02:31:21;96748.06;;;19.41;58.97
10348;BME280;5220;43.192;23.284;2022-08-01T02:33:56;96745.06;;;19.44;59.10
10348;BME280;5220;43.192;23.284;2022-08-01T02:36:26;96756.47;;;19.44;59.68
10348;BME280;5220;43.192;23.284;2022-08-01T02:38:55;96751.31;;;19.51;59.57
10348;BME280;5220;43.192;23.284;2022-08-01T02:41:24;96743.22;;;19.52;59.44
10348;BME280;5220;43.192;23.284;2022-08-01T02:43:58;96751.81;;;19.54;59.71
10348;BME280;5220;43.192;23.284;2022-08-01T02:46:29;96744.03;;;19.61;59.84
10348;BME280;5220;43.192;23.284;2022-08-01T02:48:59;96741.66;;;19.66;60.14
10348;BME280;5220;43.192;23.284;2022-08-01T02:51:29;96740.97;;;19.72;60.00
10348;BME280;5220;43.192;23.284;2022-08-01T02:53:57;96733.88;;;19.72;60.29
10348;BME280;5220;43.192;23.284;2022-08-01T02:56:26;96741.94;;;19.79;59.91
10348;BME280;5220;43.192;23.284;2022-08-01T02:59:02;96741.94;;;19.79;59.91
10348;BME280;5220;43.192;23.284;2022-08-01T03:01:31;96748.88;;;19.80;60.01
10348;BME280;5220;43.192;23.284;2022-08-01T03:04:00;96735.66;;;19.80;59.38
10348;BME280;5220;43.192;23.284;2022-08-01T03:06:30;96741.81;;;19.72;59.69
10348;BME280;5220;43.192;23.284;2022-08-01T03:09:02;96742.16;;;19.69;60.34
10348;BME280;5220;43.192;23.284;2022-08-01T03:11:32;96735.06;;;19.70;60.54
10348;BME280;5220;43.192;23.284;2022-08-01T03:14:02;96743.00;;;19.62;61.05
10348;BME280;5220;43.192;23.284;2022-08-01T03:16:33;96743.63;;;19.72;60.99
10348;BME280;5220;43.192;23.284;2022-08-01T03:19:02;96736.53;;;19.72;60.89
10348;BME280;5220;43.192;23.284;2022-08-01T03:21:31;96726.59;;;19.74;60.31
10348;BME280;5220;43.192;23.284;2022-08-01T03:24:01;96729.31;;;19.66;60.17
10348;BME280;5220;43.192;23.284;2022-08-01T03:26:31;96725.06;;;19.57;61.13
10348;BME280;5220;43.192;23.284;2022-08-01T03:29:05;96732.22;;;19.49;61.44
10348;BME280;5220;43.192;23.284;2022-08-01T03:31:35;96732.22;;;19.49;60.83
10348;BME280;5220;43.192;23.284;2022-08-01T03:34:02;96738.28;;;19.49;60.90
10348;BME280;5220;43.192;23.284;2022-08-01T03:36:32;96739.78;;;19.52;61.36
10348;BME280;5220;43.192;23.284;2022-08-01T03:39:01;96742.56;;;19.58;61.40
10348;BME280;5220;43.192;23.284;2022-08-01T03:41:32;96731.16;;;19.58;61.27
10348;BME280;5220;43.192;23.284;2022-08-01T03:44:03;96733.47;;;19.61;61.42
10348;BME280;5220;43.192;23.284;2022-08-01T03:46:35;96736.38;;;19.66;61.76
10348;BME280;5220;43.192;23.284;2022-08-01T03:49:06;96735.75;;;19.64;62.44
10348;BME280;5220;43.192;23.284;2022-08-01T03:51:36;96742.97;;;19.70;61.93
10348;BME280;5220;43.192;23.284;2022-08-01T03:54:05;96746.44;;;19.70;62.56
10348;BME280;5220;43.192;23.284;2022-08-01T03:56:33;96745.78;;;19.68;62.67
10348;BME280;5220;43.192;23.284;2022-08-01T03:59:01;96747.72;;;19.74;61.88
10348;BME280;5220;43.192;23.284;2022-08-01T04:01:31;96747.56;;;19.76;61.93
10348;BME280;5220;43.192;23.284;2022-08-01T04:03:59;96744.44;;;19.72;62.32
10348;BME280;5220;43.192;23.284;2022-08-01T04:06:26;96740.50;;;19.68;62.35
10348;BME280;5220;43.192;23.284;2022-08-01T04:08:55;96746.59;;;19.69;62.42
10348;BME280;5220;43.192;23.284;2022-08-01T04:11:46;96744.44;;;19.72;62.42
10348;BME280;5220;43.192;23.284;2022-08-01T04:14:27;96748.88;;;19.80;62.67
10348;BME280;5220;43.192;23.284;2022-08-01T04:16:54;96747.09;;;19.72;62.73
10348;BME280;5220;43.192;23.284;2022-08-01T04:19:21;96753.31;;;19.79;62.66
10348;BME280;5220;43.192;23.284;2022-08-01T04:21:49;96750.69;;;19.79;63.08
10348;BME280;5220;43.192;23.284;2022-08-01T04:24:18;96746.16;;;19.88;62.77
10348;BME280;5220;43.192;23.284;2022-08-01T04:26:47;96740.06;;;19.88;62.43
10348;BME280;5220;43.192;23.284;2022-08-01T04:29:17;96738.31;;;19.80;63.98
10348;BME280;5220;43.192;23.284;2022-08-01T04:31:47;96743.41;;;19.81;63.76
10348;BME280;5220;43.192;23.284;2022-08-01T04:34:19;96731.31;;;19.87;64.09
10348;BME280;5220;43.192;23.284;2022-08-01T04:36:48;96735.88;;;19.93;64.23
10348;BME280;5220;43.192;23.284;2022-08-01T04:39:18;96732.53;;;19.99;64.28
10348;BME280;5220;43.192;23.284;2022-08-01T04:41:47;96741.97;;;20.02;64.59
10348;BME280;5220;43.192;23.284;2022-08-01T04:44:14;96742.25;;;20.07;64.99
10348;BME280;5220;43.192;23.284;2022-08-01T04:46:42;96738.84;;;19.98;65.53
10348;BME280;5220;43.192;23.284;2022-08-01T04:49:10;96737.19;;;19.97;65.63
10348;BME280;5220;43.192;23.284;2022-08-01T04:51:49;96748.38;;;19.99;65.12
10348;BME280;5220;43.192;23.284;2022-08-01T04:54:18;96747.41;;;20.00;66.15
10348;BME280;5220;43.192;23.284;2022-08-01T04:56:46;96733.56;;;19.98;66.71
10348;BME280;5220;43.192;23.284;2022-08-01T04:59:13;96747.25;;;20.02;67.37
10348;BME280;5220;43.192;23.284;2022-08-01T05:01:58;96747.88;;;20.04;68.11
10348;BME280;5220;43.192;23.284;2022-08-01T05:04:25;96744.69;;;20.08;68.10
10348;BME280;5220;43.192;23.284;2022-08-01T05:06:52;96742.72;;;20.10;68.63
10348;BME280;5220;43.192;23.284;2022-08-01T05:09:20;96740.31;;;20.23;68.62
10348;BME280;5220;43.192;23.284;2022-08-01T05:11:47;96739.66;;;20.21;68.93
10348;BME280;5220;43.192;23.284;2022-08-01T05:14:13;96747.09;;;20.26;70.19
10348;BME280;5220;43.192;23.284;2022-08-01T05:16:40;96746.06;;;20.27;70.20
10348;BME280;5220;43.192;23.284;2022-08-01T05:19:07;96746.38;;;20.32;66.73
10348;BME280;5220;43.192;23.284;2022-08-01T05:21:35;96734.81;;;20.33;67.26
10348;BME280;5220;43.192;23.284;2022-08-01T05:24:02;96734.19;;;20.46;66.68
10348;BME280;5220;43.192;23.284;2022-08-01T05:26:30;96734.13;;;20.54;64.74
10348;BME280;5220;43.192;23.284;2022-08-01T05:28:57;96745.09;;;20.65;64.63
10348;BME280;5220;43.192;23.284;2022-08-01T05:31:23;96748.94;;;20.63;64.03
10348;BME280;5220;43.192;23.284;2022-08-01T05:33:50;96735.81;;;20.69;65.20
10348;BME280;5220;43.192;23.284;2022-08-01T05:36:17;96735.09;;;20.75;67.34
10348;BME280;5220;43.192;23.284;2022-08-01T05:38:44;96735.09;;;20.90;67.16
10348;BME280;5220;43.192;23.284;2022-08-01T05:41:11;96745.41;;;20.85;66.93
10348;BME280;5220;43.192;23.284;2022-08-01T05:43:39;96751.31;;;20.87;62.00
10348;BME280;5220;43.192;23.284;2022-08-01T05:46:06;96750.59;;;20.93;61.15
10348;BME280;5220;43.192;23.284;2022-08-01T05:48:33;96755.16;;;20.99;58.44
10348;BME280;5220;43.192;23.284;2022-08-01T05:50:59;96757.75;;;21.07;56.82
10348;BME280;5220;43.192;23.284;2022-08-01T05:53:26;96755.50;;;21.19;59.48
10348;BME280;5220;43.192;23.284;2022-08-01T05:55:53;96757.25;;;21.26;61.80
10348;BME280;5220;43.192;23.284;2022-08-01T05:58:20;96766.34;;;21.38;63.45
10348;BME280;5220;43.192;23.284;2022-08-01T06:00:48;96760.69;;;21.41;66.19
10348;BME280;5220;43.192;23.284;2022-08-01T06:03:15;96760.50;;;21.43;66.27
10348;BME280;5220;43.192;23.284;2022-08-01T06:05:42;96772.72;;;21.44;65.11
10348;BME280;5220;43.192;23.284;2022-08-01T06:08:08;96760.59;;;21.50;63.33
10348;BME280;5220;43.192;23.284;2022-08-01T06:10:35;96763.94;;;21.58;63.85
10348;BME280;5220;43.192;23.284;2022-08-01T06:13:02;96773.53;;;21.59;65.25
10348;BME280;5220;43.192;23.284;2022-08-01T06:15:29;96776.63;;;21.63;66.08
10348;BME280;5220;43.192;23.284;2022-08-01T06:17:57;96777.81;;;21.75;63.64
10348;BME280;5220;43.192;23.284;2022-08-01T06:20:24;96769.94;;;21.81;59.38
10348;BME280;5220;43.192;23.284;2022-08-01T06:22:51;96774.97;;;21.91;61.01
10348;BME280;5220;43.192;23.284;2022-08-01T06:25:18;96775.06;;;21.98;62.87
10348;BME280;5220;43.192;23.284;2022-08-01T06:27:44;96773.66;;;21.87;57.19
10348;BME280;5220;43.192;23.284;2022-08-01T06:30:11;96772.56;;;21.96;54.20
10348;BME280;5220;43.192;23.284;2022-08-01T06:32:38;96774.91;;;22.06;53.89
10348;BME280;5220;43.192;23.284;2022-08-01T06:35:07;96773.47;;;22.03;53.07
10348;BME280;5220;43.192;23.284;2022-08-01T06:37:34;96779.84;;;22.09;52.68
10348;BME280;5220;43.192;23.284;2022-08-01T06:40:01;96783.78;;;22.13;54.12
10348;BME280;5220;43.192;23.284;2022-08-01T06:42:29;96769.19;;;22.23;54.13
10348;BME280;5220;43.192;23.284;2022-08-01T06:44:57;96768.81;;;22.26;54.09
10348;BME280;5220;43.192;23.284;2022-08-01T06:47:23;96766.66;;;22.36;55.88
10348;BME280;5220;43.192;23.284;2022-08-01T06:49:50;96769.63;;;22.27;53.07
10348;BME280;5220;43.192;23.284;2022-08-01T06:52:18;96761.00;;;22.39;51.50
10348;BME280;5220;43.192;23.284;2022-08-01T06:54:45;96754.09;;;22.45;51.66
10348;BME280;5220;43.192;23.284;2022-08-01T06:57:12;96759.09;;;22.55;52.19
10348;BME280;5220;43.192;23.284;2022-08-01T06:59:38;96762.63;;;22.62;51.04
10348;BME280;5220;43.192;23.284;2022-08-01T07:02:08;96751.41;;;22.60;50.27
10348;BME280;5220;43.192;23.284;2022-08-01T07:04:35;96755.56;;;22.69;51.01
10348;BME280;5220;43.192;23.284;2022-08-01T07:07:02;96764.03;;;22.85;51.53
10348;BME280;5220;43.192;23.284;2022-08-01T07:09:30;96763.88;;;22.87;51.12
10348;BME280;5220;43.192;23.284;2022-08-01T07:11:58;96757.00;;;22.99;49.37
10348;BME280;5220;43.192;23.284;2022-08-01T07:14:25;96751.53;;;23.07;49.87
10348;BME280;5220;43.192;23.284;2022-08-01T07:16:52;96749.38;;;23.17;50.68
10348;BME280;5220;43.192;23.284;2022-08-01T07:19:18;96747.41;;;23.26;49.60
10348;BME280;5220;43.192;23.284;2022-08-01T07:21:45;96754.47;;;23.46;51.03
10348;BME280;5220;43.192;23.284;2022-08-01T07:24:13;96743.13;;;23.66;50.34
10348;BME280;5220;43.192;23.284;2022-08-01T07:26:43;96744.13;;;23.65;47.19
10348;BME280;5220;43.192;23.284;2022-08-01T07:29:10;96741.06;;;23.68;48.25
10348;BME280;5220;43.192;23.284;2022-08-01T07:31:38;96741.94;;;23.81;48.27
10348;BME280;5220;43.192;23.284;2022-08-01T07:34:07;96747.28;;;23.81;44.52
10348;BME280;5220;43.192;23.284;2022-08-01T07:36:34;96748.75;;;23.97;45.21
10348;BME280;5220;43.192;23.284;2022-08-01T07:39:01;96751.19;;;23.98;45.98
10348;BME280;5220;43.192;23.284;2022-08-01T07:41:30;96757.13;;;24.07;46.71
10348;BME280;5220;43.192;23.284;2022-08-01T07:43:58;96759.59;;;24.08;46.05
10348;BME280;5220;43.192;23.284;2022-08-01T07:46:25;96750.63;;;24.16;46.27
10348;BME280;5220;43.192;23.284;2022-08-01T07:48:51;96753.28;;;24.16;45.97
10348;BME280;5220;43.192;23.284;2022-08-01T07:51:19;96749.06;;;24.28;46.42
10348;BME280;5220;43.192;23.284;2022-08-01T07:53:47;96752.31;;;24.24;44.00
10348;BME280;5220;43.192;23.284;2022-08-01T07:56:14;96753.56;;;24.34;44.97
10348;BME280;5220;43.192;23.284;2022-08-01T07:58:41;96753.16;;;24.44;44.53
10348;BME280;5220;43.192;23.284;2022-08-01T08:01:09;96756.03;;;24.55;45.05
10348;BME280;5220;43.192;23.284;2022-08-01T08:03:36;96759.72;;;24.68;42.73
10348;BME280;5220;43.192;23.284;2022-08-01T08:06:03;96752.75;;;24.73;43.01
10348;BME280;5220;43.192;23.284;2022-08-01T08:08:30;96754.59;;;24.73;43.52
10348;BME280;5220;43.192;23.284;2022-08-01T08:11:00;96762.59;;;24.86;43.97
10348;BME280;5220;43.192;23.284;2022-08-01T08:13:28;96760.75;;;24.93;42.99
10348;BME280;5220;43.192;23.284;2022-08-01T08:15:54;96760.13;;;24.97;41.96
10348;BME280;5220;43.192;23.284;2022-08-01T08:18:25;96764.44;;;25.05;43.93
10348;BME280;5220;43.192;23.284;2022-08-01T08:20:52;96760.13;;;25.04;42.53
10348;BME280;5220;43.192;23.284;2022-08-01T08:23:19;96755.22;;;25.01;42.86
10348;BME280;5220;43.192;23.284;2022-08-01T08:26:03;96761.13;;;25.09;43.70
10348;BME280;5220;43.192;23.284;2022-08-01T08:28:30;96759.88;;;25.32;42.22
10348;BME280;5220;43.192;23.284;2022-08-01T08:30:58;96762.09;;;25.35;42.79
10348;BME280;5220;43.192;23.284;2022-08-01T08:33:26;96753.69;;;25.44;43.62
10348;BME280;5220;43.192;23.284;2022-08-01T08:35:53;96753.50;;;25.46;42.36
10348;BME280;5220;43.192;23.284;2022-08-01T08:38:20;96759.44;;;25.54;42.51
10348;BME280;5220;43.192;23.284;2022-08-01T08:40:47;96765.47;;;25.81;42.86
10348;BME280;5220;43.192;23.284;2022-08-01T08:43:15;96758.13;;;25.70;41.78
10348;BME280;5220;43.192;23.284;2022-08-01T08:45:43;96764.69;;;25.74;43.13
10348;BME280;5220;43.192;23.284;2022-08-01T08:48:11;96765.22;;;25.96;42.48
10348;BME280;5220;43.192;23.284;2022-08-01T08:50:40;96755.59;;;25.88;41.49
10348;BME280;5220;43.192;23.284;2022-08-01T08:53:09;96752.47;;;25.98;42.22
10348;BME280;5220;43.192;23.284;2022-08-01T08:55:36;96752.47;;;25.98;40.89
10348;BME280;5220;43.192;23.284;2022-08-01T08:58:04;96753.31;;;25.98;42.11
10348;BME280;5220;43.192;23.284;2022-08-01T09:00:31;96758.00;;;26.03;41.84
10348;BME280;5220;43.192;23.284;2022-08-01T09:03:01;96758.22;;;26.01;41.59
10348;BME280;5220;43.192;23.284;2022-08-01T09:05:28;96762.66;;;26.14;41.23
10348;BME280;5220;43.192;23.284;2022-08-01T09:07:56;96765.88;;;26.29;39.44
10348;BME280;5220;43.192;23.284;2022-08-01T09:10:23;96760.97;;;26.26;41.78
10348;BME280;5220;43.192;23.284;2022-08-01T09:13:07;96756.44;;;26.27;41.61
10348;BME280;5220;43.192;23.284;2022-08-01T09:15:43;96755.59;;;26.33;40.74
10348;BME280;5220;43.192;23.284;2022-08-01T09:18:28;96748.97;;;26.42;41.47
10348;BME280;5220;43.192;23.284;2022-08-01T09:21:19;96741.13;;;26.47;41.95
10348;BME280;5220;43.192;23.284;2022-08-01T09:23:49;96748.25;;;26.53;40.87
10348;BME280;5220;43.192;23.284;2022-08-01T09:26:21;96748.78;;;26.68;40.59
10348;BME280;5220;43.192;23.284;2022-08-01T09:28:54;96754.97;;;26.62;41.32
10348;BME280;5220;43.192;23.284;2022-08-01T09:31:21;96750.13;;;26.84;40.34
10348;BME280;5220;43.192;23.284;2022-08-01T09:33:49;96753.63;;;26.78;41.09
10348;BME280;5220;43.192;23.284;2022-08-01T09:36:17;96751.34;;;26.50;39.32
10348;BME280;5220;43.192;23.284;2022-08-01T09:38:46;96751.25;;;26.38;41.12
10348;BME280;5220;43.192;23.284;2022-08-01T09:41:14;96741.69;;;26.55;40.76
10348;BME280;5220;43.192;23.284;2022-08-01T09:43:47;96750.81;;;26.66;42.12
10348;BME280;5220;43.192;23.284;2022-08-01T09:46:15;96749.56;;;26.68;41.36
10348;BME280;5220;43.192;23.284;2022-08-01T09:48:55;96756.47;;;26.83;41.11
10348;BME280;5220;43.192;23.284;2022-08-01T09:51:31;96754.47;;;26.71;39.89
10348;BME280;5220;43.192;23.284;2022-08-01T09:53:58;96750.13;;;26.84;41.95
10348;BME280;5220;43.192;23.284;2022-08-01T09:56:35;96745.53;;;27.09;40.24
10348;BME280;5220;43.192;23.284;2022-08-01T09:59:03;96746.81;;;27.06;40.47
10348;BME280;5220;43.192;23.284;2022-08-01T10:01:42;96739.41;;;27.08;40.61
10348;BME280;5220;43.192;23.284;2022-08-01T10:04:10;96736.94;;;27.07;41.00
10348;BME280;5220;43.192;23.284;2022-08-01T10:06:39;96746.38;;;27.27;40.33
10348;BME280;5220;43.192;23.284;2022-08-01T10:09:08;96739.06;;;27.41;40.39
10348;BME280;5220;43.192;23.284;2022-08-01T10:11:36;96742.31;;;27.25;40.55
10348;BME280;5220;43.192;23.284;2022-08-01T10:14:05;96733.94;;;27.40;39.60
10348;BME280;5220;43.192;23.284;2022-08-01T10:16:34;96736.91;;;27.32;40.28
10348;BME280;5220;43.192;23.284;2022-08-01T10:19:02;96738.28;;;27.34;40.69
10348;BME280;5220;43.192;23.284;2022-08-01T10:21:32;96724.53;;;27.55;38.90
10348;BME280;5220;43.192;23.284;2022-08-01T10:23:59;96732.25;;;27.45;40.40
10348;BME280;5220;43.192;23.284;2022-08-01T10:26:29;96729.97;;;27.49;39.62
10348;BME280;5220;43.192;23.284;2022-08-01T10:29:00;96723.44;;;27.45;39.53
10348;BME280;5220;43.192;23.284;2022-08-01T10:31:29;96731.00;;;27.48;39.44
10348;BME280;5220;43.192;23.284;2022-08-01T10:33:58;96728.88;;;27.68;40.30
10348;BME280;5220;43.192;23.284;2022-08-01T10:36:25;96731.44;;;27.63;41.17
10348;BME280;5220;43.192;23.284;2022-08-01T10:38:53;96727.19;;;27.73;41.41
10348;BME280;5220;43.192;23.284;2022-08-01T10:41:20;96722.22;;;27.77;41.04
10348;BME280;5220;43.192;23.284;2022-08-01T10:43:48;96722.72;;;27.86;40.97
10348;BME280;5220;43.192;23.284;2022-08-01T10:46:18;96722.41;;;27.94;39.17
10348;BME280;5220;43.192;23.284;2022-08-01T10:48:51;96723.91;;;27.71;39.28
10348;BME280;5220;43.192;23.284;2022-08-01T10:51:21;96727.66;;;27.52;38.48
10348;BME280;5220;43.192;23.284;2022-08-01T10:53:51;96726.53;;;27.60;40.11
10348;BME280;5220;43.192;23.284;2022-08-01T10:56:18;96719.66;;;27.52;39.30
10348;BME280;5220;43.192;23.284;2022-08-01T10:58:46;96720.44;;;27.71;39.51
10348;BME280;5220;43.192;23.284;2022-08-01T11:01:17;96714.91;;;27.84;40.10
10348;BME280;5220;43.192;23.284;2022-08-01T11:03:57;96731.91;;;28.08;39.53
10348;BME280;5220;43.192;23.284;2022-08-01T11:06:35;96731.91;;;28.08;40.21
10348;BME280;5220;43.192;23.284;2022-08-01T11:09:05;96713.66;;;28.05;39.08
10348;BME280;5220;43.192;23.284;2022-08-01T11:12:02;96721.59;;;28.23;39.01
10348;BME280;5220;43.192;23.284;2022-08-01T11:14:32;96718.78;;;28.18;38.24
10348;BME280;5220;43.192;23.284;2022-08-01T11:17:31;96720.59;;;28.06;39.15
10348;BME280;5220;43.192;23.284;2022-08-01T11:20:09;96712.19;;;28.02;39.60
10348;BME280;5220;43.192;23.284;2022-08-01T11:26:09;96717.03;;;28.12;38.90
10348;BME280;5220;43.192;23.284;2022-08-01T11:28:36;96710.66;;;27.95;38.87
10348;BME280;5220;43.192;23.284;2022-08-01T11:31:27;96716.91;;;28.07;38.40
10348;BME280;5220;43.192;23.284;2022-08-01T11:33:56;96706.13;;;27.95;39.86
10348;BME280;5220;43.192;23.284;2022-08-01T11:36:26;96710.38;;;27.85;39.41
10348;BME280;5220;43.192;23.284;2022-08-01T11:39:15;96707.59;;;27.80;39.87
10348;BME280;5220;43.192;23.284;2022-08-01T11:41:43;96706.19;;;27.77;39.98
10348;BME280;5220;43.192;23.284;2022-08-01T11:44:16;96709.34;;;27.86;39.60
10348;BME280;5220;43.192;23.284;2022-08-01T11:46:51;96708.97;;;27.82;40.18
10348;BME280;5220;43.192;23.284;2022-08-01T11:49:43;96711.25;;;27.67;39.87
10348;BME280;5220;43.192;23.284;2022-08-01T11:52:13;96706.72;;;27.67;40.38
10348;BME280;5220;43.192;23.284;2022-08-01T11:54:42;96704.16;;;27.72;40.34
10348;BME280;5220;43.192;23.284;2022-08-01T11:57:11;96710.41;;;27.66;40.50
10348;BME280;5220;43.192;23.284;2022-08-01T11:59:41;96702.03;;;27.63;39.70
10348;BME280;5220;43.192;23.284;2022-08-01T12:02:19;96695.84;;;27.62;39.79
10348;BME280;5220;43.192;23.284;2022-08-01T12:04:54;96690.47;;;27.51;40.59
10348;BME280;5220;43.192;23.284;2022-08-01T12:07:22;96696.47;;;27.64;38.79
10348;BME280;5220;43.192;23.284;2022-08-01T12:09:58;96690.22;;;27.70;39.51
10348;BME280;5220;43.192;23.284;2022-08-01T12:12:28;96690.38;;;27.57;41.17
10348;BME280;5220;43.192;23.284;2022-08-01T12:14:57;96693.72;;;27.53;39.20
10348;BME280;5220;43.192;23.284;2022-08-01T12:17:28;96692.31;;;27.50;39.71
10348;BME280;5220;43.192;23.284;2022-08-01T12:19:57;96685.41;;;27.61;40.27
10348;BME280;5220;43.192;23.284;2022-08-01T12:22:25;96686.53;;;27.53;40.12
10348;BME280;5220;43.192;23.284;2022-08-01T12:24:52;96685.25;;;27.56;41.57
10348;BME280;5220;43.192;23.284;2022-08-01T12:27:26;96689.56;;;27.57;40.35
10348;BME280;5220;43.192;23.284;2022-08-01T12:29:53;96689.13;;;27.60;41.20
10348;BME280;5220;43.192;23.284;2022-08-01T12:32:23;96684.19;;;27.75;39.42
10348;BME280;5220;43.192;23.284;2022-08-01T12:34:50;96681.59;;;27.68;40.90
10348;BME280;5220;43.192;23.284;2022-08-01T12:37:19;96685.69;;;27.71;40.55
10348;BME280;5220;43.192;23.284;2022-08-01T12:39:46;96685.81;;;27.76;41.06
10348;BME280;5220;43.192;23.284;2022-08-01T12:42:14;96681.75;;;27.73;40.94
10348;BME280;5220;43.192;23.284;2022-08-01T12:44:44;96674.75;;;27.72;40.75
10348;BME280;5220;43.192;23.284;2022-08-01T12:47:12;96676.63;;;27.72;39.59
10348;BME280;5220;43.192;23.284;2022-08-01T12:49:41;96677.03;;;27.87;40.33
10348;BME280;5220;43.192;23.284;2022-08-01T12:52:09;96670.19;;;27.91;40.20
10348;BME280;5220;43.192;23.284;2022-08-01T12:55:13;96672.94;;;27.85;38.84
10348;BME280;5220;43.192;23.284;2022-08-01T12:57:43;96671.53;;;28.12;38.67
10348;BME280;5220;43.192;23.284;2022-08-01T13:00:14;96656.41;;;28.06;39.52
10348;BME280;5220;43.192;23.284;2022-08-01T13:02:43;96668.19;;;28.05;40.40
10348;BME280;5220;43.192;23.284;2022-08-01T13:05:11;96668.88;;;28.12;39.56
10348;BME280;5220;43.192;23.284;2022-08-01T13:07:40;96663.66;;;28.17;39.27
10348;BME280;5220;43.192;23.284;2022-08-01T13:10:08;96662.03;;;28.16;39.82
10348;BME280;5220;43.192;23.284;2022-08-01T13:12:38;96666.34;;;28.17;38.57
10348;BME280;5220;43.192;23.284;2022-08-01T13:15:26;96665.75;;;28.15;39.24
10348;BME280;5220;43.192;23.284;2022-08-01T13:17:54;96668.91;;;28.23;38.92